createdAt,value
2023-02-12T00:01:29.302Z,16.45
2023-02-12T00:04:00.887Z,17.48
2023-02-12T00:06:27.934Z,19.85
2023-02-12T00:08:59.920Z,16.15
2023-02-12T00:11:29.337Z,16.55
2023-02-12T00:13:58.745Z,19.10
2023-02-12T00:16:30.771Z,17.35
2023-02-12T00:18:58.103Z,16.98
2023-02-12T00:21:27.273Z,20.50
2023-02-12T00:23:54.216Z,18.40
2023-02-12T00:26:24.266Z,18.95
2023-02-12T00:28:54.167Z,15.70
2023-02-12T00:31:26.035Z,16.63
2023-02-12T00:33:56.470Z,17.25
2023-02-12T00:36:27.194Z,15.05
2023-02-12T00:38:54.869Z,17.38
2023-02-12T00:41:24.682Z,16.33
2023-02-12T00:43:51.735Z,16.88
2023-02-12T00:46:21.406Z,16.08
2023-02-12T00:48:49.275Z,14.63
2023-02-12T00:51:21.952Z,13.57
2023-02-12T00:53:48.947Z,13.07
2023-02-12T00:56:20.221Z,13.80
2023-02-12T00:58:50.002Z,16.17
2023-02-12T01:01:21.773Z,13.43
2023-02-12T01:03:51.101Z,11.95
2023-02-12T01:06:21.162Z,14.57
2023-02-12T01:08:53.776Z,17.58
2023-02-12T01:11:23.777Z,14.73
2023-02-12T01:13:56.716Z,17.15
2023-02-12T01:16:29.273Z,15.75
2023-02-12T01:18:56.746Z,13.10
2023-02-12T01:21:26.158Z,12.45
2023-02-12T01:23:53.184Z,16.98
2023-02-12T01:26:20.756Z,16.17
2023-02-12T01:28:52.392Z,16.00
2023-02-12T01:31:22.133Z,14.77
2023-02-12T01:33:51.511Z,15.73
2023-02-12T01:36:21.530Z,12.68
2023-02-12T01:38:53.291Z,11.80
2023-02-12T01:41:25.396Z,11.52
2023-02-12T01:44:14.271Z,12.60
2023-02-12T01:46:43.717Z,10.65
2023-02-12T01:49:21.531Z,12.95
2023-02-12T01:51:49.228Z,10.40
2023-02-12T01:54:18.693Z,10.63
2023-02-12T01:56:45.647Z,11.40
2023-02-12T01:59:14.696Z,10.07
2023-02-12T02:01:44.730Z,10.60
2023-02-12T02:04:17.131Z,11.10
2023-02-12T02:07:08.238Z,12.02
2023-02-12T02:09:39.005Z,9.52
2023-02-12T02:12:27.346Z,9.93
2023-02-12T02:15:00.509Z,12.40
2023-02-12T02:17:45.415Z,12.85
2023-02-12T02:20:18.554Z,10.63
2023-02-12T02:23:22.326Z,11.63
2023-02-12T02:26:00.865Z,12.02
2023-02-12T02:28:59.361Z,13.75
2023-02-12T02:31:46.399Z,11.55
2023-02-12T02:34:24.756Z,9.00
2023-02-12T02:37:01.706Z,9.48
2023-02-12T02:39:39.914Z,10.93
2023-02-12T02:42:35.341Z,10.93
2023-02-12T02:45:20.735Z,11.25
2023-02-12T02:47:54.294Z,8.90
2023-02-12T02:50:23.408Z,12.55
2023-02-12T02:53:13.381Z,10.73
2023-02-12T02:55:47.977Z,12.68
2023-02-12T02:58:22.389Z,9.02
2023-02-12T03:00:57.633Z,11.00
2023-02-12T03:03:48.747Z,10.43
2023-02-12T03:06:29.141Z,10.82
2023-02-12T03:09:06.670Z,9.30
2023-02-12T03:11:36.063Z,10.10
2023-02-12T03:14:11.943Z,9.15
2023-02-12T03:16:59.147Z,10.55
2023-02-12T03:19:29.936Z,8.23
2023-02-12T03:22:02.778Z,11.18
2023-02-12T03:24:46.627Z,8.95
2023-02-12T03:27:18.300Z,12.23
2023-02-12T03:29:45.247Z,9.70
2023-02-12T03:32:25.333Z,12.63
2023-02-12T03:35:11.975Z,12.88
2023-02-12T03:38:06.790Z,13.32
2023-02-12T03:40:41.885Z,10.93
2023-02-12T03:43:23.189Z,10.52
2023-02-12T03:45:57.254Z,15.15
2023-02-12T03:48:36.704Z,11.20
2023-02-12T03:51:18.813Z,11.10
2023-02-12T03:53:45.744Z,12.38
2023-02-12T03:56:34.609Z,12.68
2023-02-12T03:59:04.655Z,10.55
2023-02-12T04:01:37.230Z,11.82
2023-02-12T04:04:06.278Z,11.55
2023-02-12T04:06:35.328Z,11.10
2023-02-12T04:09:07.693Z,11.80
2023-02-12T04:12:06.763Z,10.93
2023-02-12T04:15:09.128Z,11.38
2023-02-12T04:18:03.822Z,10.60
2023-02-12T04:21:15.490Z,11.63
2023-02-12T04:23:53.099Z,12.00
2023-02-12T04:26:39.512Z,8.75
2023-02-12T04:29:24.692Z,12.02
2023-02-12T04:32:06.846Z,9.77
2023-02-12T04:35:01.670Z,13.07
2023-02-12T04:37:32.561Z,10.52
2023-02-12T04:40:02.464Z,13.90
2023-02-12T04:42:31.522Z,11.52
2023-02-12T04:45:04.016Z,11.07
2023-02-12T04:47:33.052Z,10.02
2023-02-12T04:50:02.346Z,12.50
2023-02-12T04:52:31.727Z,12.73
2023-02-12T04:54:58.732Z,10.45
2023-02-12T04:57:27.978Z,9.02
2023-02-12T04:59:57.155Z,10.68
2023-02-12T05:02:24.110Z,10.93
2023-02-12T05:04:53.689Z,10.82
2023-02-12T05:07:20.635Z,10.48
2023-02-12T05:09:47.531Z,11.10
2023-02-12T05:12:16.771Z,13.02
2023-02-12T05:14:43.660Z,10.75
2023-02-12T05:17:10.596Z,12.45
2023-02-12T05:19:37.519Z,11.95
2023-02-12T05:22:06.516Z,13.77
2023-02-12T05:24:35.919Z,13.00
2023-02-12T05:27:09.091Z,11.85
2023-02-12T05:29:38.596Z,16.10
2023-02-12T05:32:08.246Z,16.92
2023-02-12T05:34:37.411Z,14.45
2023-02-12T05:37:06.939Z,16.10
2023-02-12T05:39:36.326Z,13.20
2023-02-12T05:42:03.248Z,13.68
2023-02-12T05:44:32.588Z,13.48
2023-02-12T05:46:59.570Z,16.33
2023-02-12T05:49:28.662Z,15.50
2023-02-12T05:52:00.116Z,16.10
2023-02-12T05:54:32.818Z,18.58
2023-02-12T05:57:02.033Z,17.23
2023-02-12T05:59:31.293Z,17.95
2023-02-12T06:01:58.219Z,13.93
2023-02-12T06:04:33.129Z,14.30
2023-02-12T06:07:00.318Z,12.52
2023-02-12T06:09:32.048Z,12.55
2023-02-12T06:11:59.041Z,13.70
2023-02-12T06:14:25.995Z,11.93
2023-02-12T06:16:53.065Z,12.27
2023-02-12T06:19:25.326Z,15.43
2023-02-12T06:21:54.430Z,11.57
2023-02-12T06:24:25.768Z,11.73
2023-02-12T06:26:52.755Z,19.35
2023-02-12T06:29:22.716Z,14.82
2023-02-12T06:31:57.158Z,12.68
2023-02-12T06:34:26.297Z,14.25
2023-02-12T06:36:53.219Z,15.18
2023-02-12T06:39:23.205Z,13.50
2023-02-12T06:41:55.407Z,13.48
2023-02-12T06:44:24.418Z,14.50
2023-02-12T06:46:55.908Z,17.17
2023-02-12T06:49:27.614Z,14.35
2023-02-12T06:51:57.579Z,13.40
2023-02-12T06:54:24.500Z,13.88
2023-02-12T06:56:56.115Z,13.20
2023-02-12T06:59:30.295Z,13.43
2023-02-12T07:01:59.739Z,13.00
2023-02-12T07:04:26.760Z,13.63
2023-02-12T07:06:56.213Z,14.48
2023-02-12T07:09:23.127Z,12.43
2023-02-12T07:11:50.248Z,13.43
2023-02-12T07:14:22.620Z,12.10
2023-02-12T07:16:52.039Z,10.13
2023-02-12T07:19:21.446Z,11.27
2023-02-12T07:21:51.355Z,13.13
2023-02-12T07:24:20.430Z,10.30
2023-02-12T07:26:47.528Z,11.68
2023-02-12T07:29:14.497Z,11.50
2023-02-12T07:31:41.590Z,12.05
2023-02-12T07:34:11.111Z,12.50
2023-02-12T07:36:40.602Z,11.38
2023-02-12T07:39:13.656Z,17.90
2023-02-12T07:41:40.592Z,13.10
2023-02-12T07:44:13.428Z,11.77
2023-02-12T07:46:48.624Z,13.90
2023-02-12T07:49:25.727Z,17.05
2023-02-12T07:51:58.004Z,12.65
2023-02-12T07:54:27.136Z,12.75
2023-02-12T07:56:54.030Z,14.48
2023-02-12T07:59:23.278Z,11.82
2023-02-12T08:01:53.793Z,14.57
2023-02-12T08:04:26.233Z,13.95
2023-02-12T08:06:56.145Z,13.65
2023-02-12T08:09:27.514Z,13.00
2023-02-12T08:11:54.586Z,12.35
2023-02-12T08:14:24.238Z,13.85
2023-02-12T08:19:26.378Z,9.73
2023-02-12T08:21:58.659Z,12.05
2023-02-12T08:24:27.899Z,18.33
2023-02-12T08:26:57.115Z,10.80
2023-02-12T08:29:28.895Z,10.57
2023-02-12T08:31:59.436Z,9.32
2023-02-12T08:34:35.542Z,8.32
2023-02-12T08:37:04.997Z,9.27
2023-02-12T08:39:36.699Z,11.32
2023-02-12T08:42:05.885Z,11.00
2023-02-12T08:44:33.004Z,10.50
2023-02-12T08:47:00.020Z,8.98
2023-02-12T08:49:32.363Z,9.75
2023-02-12T08:52:00.012Z,9.60
2023-02-12T08:54:30.608Z,6.88
2023-02-12T08:57:00.833Z,7.53
2023-02-12T08:59:27.817Z,7.93
2023-02-12T09:01:55.135Z,6.57
2023-02-12T09:04:23.726Z,7.05
2023-02-12T09:06:53.492Z,7.25
2023-02-12T09:09:20.534Z,6.78
2023-02-12T09:11:50.537Z,9.25
2023-02-12T09:14:18.769Z,8.73
2023-02-12T09:16:46.100Z,8.75
2023-02-12T09:19:17.693Z,10.93
2023-02-12T09:21:44.621Z,9.75
2023-02-12T09:24:18.096Z,10.60
2023-02-12T09:26:47.416Z,8.30
2023-02-12T09:29:16.759Z,8.60
2023-02-12T09:31:47.159Z,7.10
2023-02-12T09:34:14.135Z,8.45
2023-02-12T09:36:41.043Z,7.60
2023-02-12T09:39:12.608Z,6.10
2023-02-12T09:42:01.132Z,7.47
2023-02-12T09:44:30.646Z,6.93
2023-02-12T09:47:21.130Z,7.28
2023-02-12T09:49:50.506Z,4.60
2023-02-12T09:52:19.511Z,3.88
2023-02-12T09:54:49.031Z,5.55
2023-02-12T09:57:39.101Z,3.60
2023-02-12T10:00:28.053Z,4.60
2023-02-12T10:02:58.068Z,4.68
2023-02-12T10:05:41.227Z,4.65
2023-02-12T10:08:29.913Z,6.47
2023-02-12T10:11:15.369Z,4.22
2023-02-12T10:14:16.130Z,4.03
2023-02-12T10:17:03.960Z,4.78
2023-02-12T10:19:49.165Z,4.13
2023-02-12T10:25:04.479Z,3.60
2023-02-12T10:27:41.897Z,4.03
2023-02-12T10:30:21.413Z,3.78
2023-02-12T10:32:51.691Z,4.35
2023-02-12T10:35:18.988Z,2.90
2023-02-12T10:37:52.211Z,3.90
2023-02-12T10:40:22.014Z,4.13
2023-02-12T10:42:54.744Z,3.58
2023-02-12T10:45:28.221Z,3.75
2023-02-12T10:48:07.877Z,3.83
2023-02-12T10:50:56.517Z,3.88
2023-02-12T10:56:12.586Z,4.18
2023-02-12T10:58:44.521Z,3.22
2023-02-12T11:01:25.973Z,4.20
2023-02-12T11:03:54.376Z,4.30
2023-02-12T11:06:27.887Z,4.45
2023-02-12T11:08:57.586Z,3.83
2023-02-12T11:11:37.099Z,3.72
2023-02-12T11:14:18.156Z,4.25
2023-02-12T11:16:58.757Z,3.67
2023-02-12T11:19:32.339Z,3.15
2023-02-12T11:22:10.756Z,3.25
2023-02-12T11:24:40.287Z,4.80
2023-02-12T11:27:16.357Z,3.90
2023-02-12T11:29:51.269Z,3.67
2023-02-12T11:32:22.614Z,4.53
2023-02-12T11:35:10.954Z,3.35
2023-02-12T11:37:40.620Z,4.80
2023-02-12T11:40:09.971Z,4.28
2023-02-12T11:42:36.914Z,5.63
2023-02-12T11:45:06.370Z,3.33
2023-02-12T11:47:38.523Z,3.60
2023-02-12T11:50:25.449Z,3.67
2023-02-12T11:52:56.437Z,4.57
2023-02-12T11:55:36.530Z,3.58
2023-02-12T11:58:07.572Z,2.90
2023-02-12T12:00:38.388Z,3.55
2023-02-12T12:03:28.636Z,6.22
2023-02-12T12:06:19.018Z,3.47
2023-02-12T12:08:49.140Z,4.45
2023-02-12T12:11:47.026Z,3.58
2023-02-12T12:14:27.793Z,3.53
2023-02-12T12:17:31.487Z,4.00
2023-02-12T12:20:06.510Z,4.07
2023-02-12T12:22:52.316Z,4.60
2023-02-12T12:25:47.932Z,3.97
2023-02-12T12:28:30.224Z,4.68
2023-02-12T12:31:07.161Z,5.38
2023-02-12T12:34:00.803Z,5.53
2023-02-12T12:36:51.160Z,4.50
2023-02-12T12:39:59.677Z,6.20
2023-02-12T12:42:41.696Z,5.85
2023-02-12T12:45:19.858Z,6.18
2023-02-12T12:48:21.008Z,5.53
2023-02-12T12:51:11.195Z,6.00
2023-02-12T12:54:19.364Z,4.07
2023-02-12T12:57:17.041Z,5.07
2023-02-12T12:59:59.348Z,5.75
2023-02-12T13:02:52.851Z,4.80
2023-02-12T13:05:23.744Z,5.20
2023-02-12T13:08:06.331Z,6.13
2023-02-12T13:10:55.962Z,5.13
2023-02-12T13:13:30.440Z,4.60
2023-02-12T13:15:57.804Z,7.18
2023-02-12T13:18:59.204Z,4.10
2023-02-12T13:21:32.958Z,5.13
2023-02-12T13:24:01.745Z,6.15
2023-02-12T13:26:50.456Z,4.50
2023-02-12T13:29:29.128Z,4.88
2023-02-12T13:32:14.697Z,5.13
2023-02-12T13:34:44.075Z,3.80
2023-02-12T13:37:29.967Z,5.10
2023-02-12T13:39:56.876Z,4.70
2023-02-12T13:42:58.424Z,4.95
2023-02-12T13:45:44.188Z,4.75
2023-02-12T13:48:19.241Z,5.70
2023-02-12T13:53:31.315Z,6.18
2023-02-12T13:56:31.953Z,5.90
2023-02-12T13:59:01.101Z,3.90
2023-02-12T14:01:47.650Z,6.50
2023-02-12T14:04:18.545Z,6.38
2023-02-12T14:06:59.753Z,5.85
2023-02-12T14:09:37.851Z,7.10
2023-02-12T14:12:06.715Z,6.50
2023-02-12T14:14:36.719Z,7.13
2023-02-12T14:17:28.610Z,6.85
2023-02-12T14:20:13.799Z,6.97
2023-02-12T14:25:14.180Z,6.95
2023-02-12T14:27:44.218Z,6.30
2023-02-12T14:30:13.604Z,7.78
2023-02-12T14:33:00.773Z,5.65
2023-02-12T14:35:31.628Z,6.28
2023-02-12T14:38:03.323Z,10.02
2023-02-12T14:40:40.720Z,7.35
2023-02-12T14:43:26.799Z,6.55
2023-02-12T14:45:55.306Z,6.95
2023-02-12T14:48:49.698Z,6.13
2023-02-12T14:52:06.837Z,5.95
2023-02-12T14:54:50.037Z,5.75
2023-02-12T14:57:28.990Z,5.57
2023-02-12T15:02:30.711Z,7.30
2023-02-12T15:05:03.456Z,6.68
2023-02-12T15:07:52.880Z,7.40
2023-02-12T15:10:21.874Z,8.05
2023-02-12T15:13:22.862Z,8.38
2023-02-12T15:16:13.697Z,8.57
2023-02-12T15:18:46.239Z,7.65
2023-02-12T15:21:30.083Z,6.10
2023-02-12T15:24:03.252Z,6.57
2023-02-12T15:26:33.452Z,6.88
2023-02-12T15:29:00.553Z,7.53
2023-02-12T15:31:32.774Z,6.57
2023-02-12T15:34:05.881Z,6.75
2023-02-12T15:36:33.357Z,5.53
2023-02-12T15:39:02.401Z,5.10
2023-02-12T15:41:34.502Z,7.38
2023-02-12T15:44:28.287Z,7.10
2023-02-12T15:47:17.169Z,7.20
2023-02-12T15:49:48.807Z,6.43
2023-02-12T15:52:24.820Z,5.80
2023-02-12T15:54:51.960Z,6.15
2023-02-12T15:57:24.550Z,7.47
2023-02-12T15:59:56.524Z,6.03
2023-02-12T16:02:33.697Z,7.90
2023-02-12T16:05:01.058Z,6.43
2023-02-12T16:07:29.846Z,7.72
2023-02-12T16:09:59.244Z,7.13
2023-02-12T16:12:29.123Z,5.97
2023-02-12T16:15:00.540Z,4.90
2023-02-12T16:17:32.251Z,6.82
2023-02-12T16:19:59.857Z,6.53
2023-02-12T16:22:48.227Z,5.03
2023-02-12T16:25:22.472Z,6.13
2023-02-12T16:28:05.515Z,4.78
2023-02-12T16:30:39.298Z,6.07
2023-02-12T16:33:06.532Z,5.68
2023-02-12T16:35:34.208Z,8.65
2023-02-12T16:38:42.966Z,6.85
2023-02-12T16:41:18.332Z,6.90
2023-02-12T16:43:45.941Z,11.13
2023-02-12T16:46:16.835Z,9.25
2023-02-12T16:48:49.290Z,8.30
2023-02-12T16:51:27.562Z,14.27
2023-02-12T16:53:57.925Z,11.60
2023-02-12T16:56:39.381Z,8.60
2023-02-12T16:59:09.491Z,12.20
2023-02-12T17:01:36.883Z,12.50
2023-02-12T17:04:10.716Z,9.30
2023-02-12T17:06:40.535Z,9.77
2023-02-12T17:09:10.023Z,10.38
2023-02-12T17:11:42.224Z,10.07
2023-02-12T17:14:14.743Z,11.25
2023-02-12T17:16:41.857Z,14.38
2023-02-12T17:19:10.923Z,21.60
2023-02-12T17:21:39.672Z,22.67
2023-02-12T17:24:22.600Z,32.50
2023-02-12T17:26:53.146Z,25.77
2023-02-12T17:29:20.921Z,20.83
2023-02-12T17:31:48.309Z,19.00
2023-02-12T17:34:17.866Z,9.70
2023-02-12T17:36:47.421Z,9.80
2023-02-12T17:39:14.845Z,9.75
2023-02-12T17:41:42.007Z,9.23
2023-02-12T17:44:08.967Z,9.10
2023-02-12T17:46:35.970Z,8.13
2023-02-12T17:49:06.327Z,8.30
2023-02-12T17:51:35.565Z,9.50
2023-02-12T17:54:05.226Z,7.10
2023-02-12T17:56:34.271Z,7.10
2023-02-12T17:59:04.252Z,9.65
2023-02-12T18:01:36.101Z,5.47
2023-02-12T18:04:05.640Z,6.97
2023-02-12T18:06:32.663Z,7.93
2023-02-12T18:09:02.177Z,8.82
2023-02-12T18:12:04.553Z,8.52
2023-02-12T18:14:31.515Z,12.02
2023-02-12T18:16:58.743Z,8.38
2023-02-12T18:19:33.059Z,8.05
2023-02-12T18:22:02.232Z,7.82
2023-02-12T18:24:34.506Z,7.50
2023-02-12T18:27:01.884Z,5.82
2023-02-12T18:29:33.926Z,5.28
2023-02-12T18:32:05.586Z,7.05
2023-02-12T18:34:34.880Z,9.23
2023-02-12T18:37:04.370Z,9.07
2023-02-12T18:39:33.454Z,8.25
2023-02-12T18:42:03.333Z,8.27
2023-02-12T18:44:30.343Z,8.70
2023-02-12T18:47:01.967Z,9.48
2023-02-12T18:49:33.621Z,8.23
2023-02-12T18:52:06.143Z,9.57
2023-02-12T18:54:47.514Z,7.97
2023-02-12T18:57:20.012Z,10.07
2023-02-12T18:59:49.257Z,11.95
2023-02-12T19:02:20.980Z,13.13
2023-02-12T19:04:47.968Z,12.20
2023-02-12T19:07:14.919Z,12.45
2023-02-12T19:09:41.933Z,13.65
2023-02-12T19:12:11.123Z,13.05
2023-02-12T19:14:47.809Z,12.43
2023-02-12T19:17:14.738Z,10.10
2023-02-12T19:19:45.439Z,12.60
2023-02-12T19:22:17.770Z,12.00
2023-02-12T19:24:50.517Z,11.48
2023-02-12T19:27:19.722Z,11.68
2023-02-12T19:29:51.174Z,11.10
2023-02-12T19:32:25.269Z,12.73
2023-02-12T19:34:56.521Z,12.38
2023-02-12T19:37:25.955Z,10.95
2023-02-12T19:40:00.636Z,12.20
2023-02-12T19:42:30.925Z,10.82
2023-02-12T19:45:02.823Z,15.20
2023-02-12T19:47:32.712Z,13.45
2023-02-12T19:49:59.697Z,13.13
2023-02-12T19:52:26.622Z,12.32
2023-02-12T19:54:55.652Z,13.98
2023-02-12T19:57:25.311Z,14.57
2023-02-12T19:59:52.455Z,14.38
2023-02-12T20:02:19.454Z,14.45
2023-02-12T20:04:48.887Z,13.93
2023-02-12T20:07:20.200Z,15.48
2023-02-12T20:09:50.586Z,13.55
2023-02-12T20:12:20.137Z,15.32
2023-02-12T20:14:49.400Z,17.08
2023-02-12T20:17:20.241Z,13.15
2023-02-12T20:19:47.191Z,14.05
2023-02-12T20:22:14.132Z,12.77
2023-02-12T20:24:45.743Z,13.48
2023-02-12T20:27:14.788Z,11.90
2023-02-12T20:29:51.677Z,14.70
2023-02-12T20:32:23.598Z,14.48
2023-02-12T20:34:57.967Z,13.73
2023-02-12T20:37:24.930Z,16.15
2023-02-12T20:39:54.399Z,15.80
2023-02-12T20:42:23.552Z,16.40
2023-02-12T20:44:50.503Z,15.15
2023-02-12T20:47:28.373Z,14.45
2023-02-12T20:49:58.037Z,14.90
2023-02-12T20:52:25.278Z,14.18
2023-02-12T20:54:54.479Z,13.73
2023-02-12T20:57:23.626Z,14.70
2023-02-12T20:59:52.951Z,16.90
2023-02-12T21:02:22.516Z,14.25
2023-02-12T21:04:56.159Z,13.85
2023-02-12T21:07:27.904Z,14.40
2023-02-12T21:09:55.105Z,13.90
2023-02-12T21:12:22.031Z,13.13
2023-02-12T21:14:51.074Z,14.57
2023-02-12T21:17:20.223Z,17.45
2023-02-12T21:19:52.816Z,17.67
2023-02-12T21:22:21.411Z,15.43
2023-02-12T21:24:50.477Z,16.98
2023-02-12T21:27:17.437Z,16.10
2023-02-12T21:29:51.743Z,16.15
2023-02-12T21:32:18.759Z,17.13
2023-02-12T21:34:47.499Z,16.05
2023-02-12T21:37:17.678Z,16.17
2023-02-12T21:39:49.534Z,18.08
2023-02-12T21:42:21.401Z,17.90
2023-02-12T21:44:50.615Z,17.23
2023-02-12T21:47:19.740Z,18.70
2023-02-12T21:49:46.649Z,18.95
2023-02-12T21:52:13.650Z,21.08
2023-02-12T21:54:40.583Z,19.88
2023-02-12T21:57:09.699Z,20.55
2023-02-12T21:59:38.747Z,23.70
2023-02-12T22:02:06.272Z,22.33
2023-02-12T22:04:33.242Z,23.40
2023-02-12T22:07:03.299Z,28.00
2023-02-12T22:09:34.917Z,32.17
2023-02-12T22:12:02.159Z,27.48
2023-02-12T22:14:31.330Z,33.03
2023-02-12T22:17:00.656Z,30.73
2023-02-12T22:19:30.135Z,32.80
2023-02-12T22:21:57.096Z,31.67
2023-02-12T22:24:24.033Z,29.77
2023-02-12T22:26:50.960Z,33.50
2023-02-12T22:29:22.826Z,33.38
2023-02-12T22:31:52.216Z,34.85
2023-02-12T22:34:22.222Z,33.33
2023-02-12T22:36:49.165Z,32.38
2023-02-12T22:39:18.700Z,32.67
2023-02-12T22:41:45.888Z,33.30
2023-02-12T22:44:16.121Z,29.42
2023-02-12T22:46:43.280Z,30.95
2023-02-12T22:49:15.073Z,32.90
2023-02-12T22:51:47.252Z,32.58
2023-02-12T22:54:18.122Z,36.30
2023-02-12T22:56:45.241Z,36.28
2023-02-12T22:59:15.221Z,35.65
2023-02-12T23:01:47.659Z,35.28
2023-02-12T23:04:16.429Z,36.33
2023-02-12T23:06:46.025Z,36.60
2023-02-12T23:09:15.182Z,36.25
2023-02-12T23:11:47.769Z,37.35
2023-02-12T23:14:14.788Z,36.22
2023-02-12T23:16:41.818Z,35.83
2023-02-12T23:19:10.062Z,40.72
2023-02-12T23:21:39.337Z,37.67
2023-02-12T23:24:06.540Z,36.90
2023-02-12T23:26:33.491Z,35.55
2023-02-12T23:29:02.626Z,37.80
2023-02-12T23:31:30.133Z,38.35
2023-02-12T23:34:02.036Z,41.40
2023-02-12T23:36:31.545Z,44.28
2023-02-12T23:39:00.619Z,41.45
2023-02-12T23:41:29.784Z,46.13
2023-02-12T23:44:01.420Z,45.40
2023-02-12T23:46:31.347Z,42.78
2023-02-12T23:49:01.311Z,45.97
2023-02-12T23:51:28.396Z,47.13
2023-02-12T23:53:58.329Z,43.08
2023-02-12T23:56:25.359Z,44.28
2023-02-12T23:58:52.352Z,43.28
